Time;durP1;ratioP1;P1;durP2;ratioP2;P2;SDS_P1;SDS_P2;PMS_P1;PMS_P2;Temp;Humidity;BMP_temperature;BMP_pressure;BME280_temperature;BME280_humidity;BME280_pressure;Samples;Min_cycle;Max_cycle;Signal;HPM_P1;HPM_P2
2024/01/27 00:00:13;;;;;;;;;;;22.60;99.90;;;;;;5106776;28;19919;-67
2024/01/27 00:02:40;;;;;;;;;;;22.50;99.90;;;;;;5113713;28;20360;-68
2024/01/27 00:05:08;;;;;;;;;;;22.60;99.90;;;;;;5114030;27;19919;-65
2024/01/27 00:07:34;;;;;;;;;;;22.60;99.90;;;;;;5114018;28;20356;-67
2024/01/27 00:10:02;;;;;;;;;;;22.70;99.90;;;;;;5114013;28;20030;-65
2024/01/27 00:12:28;;;;;;;;;;;22.60;99.90;;;;;;5113875;28;19915;-68
2024/01/27 00:14:55;;;;;;;;;;;22.70;99.90;;;;;;5113366;28;20334;-66
2024/01/27 00:17:26;;;;;;;;;;;22.70;99.90;;;;;;5113420;28;19933;-66
2024/01/27 00:19:52;;;;;;;;;;;22.80;99.90;;;;;;5122306;27;19917;-66
2024/01/27 00:22:20;;;;;;;;;;;22.80;99.90;;;;;;5134261;27;20402;-69
2024/01/27 00:24:47;;;;;;;;;;;22.80;99.90;;;;;;5115715;27;19912;-64
2024/01/27 00:27:14;;;;;;;;;;;22.80;99.90;;;;;;5113577;28;20139;-67
2024/01/27 00:29:40;;;;;;;;;;;22.90;99.90;;;;;;5113172;28;19916;-67
2024/01/27 00:32:07;;;;;;;;;;;22.90;99.90;;;;;;5113710;28;19914;-69
2024/01/27 00:34:33;;;;;;;;;;;23.00;99.90;;;;;;5113306;27;19954;-66
2024/01/27 00:37:00;;;;;;;;;;;23.10;99.90;;;;;;5113291;28;19916;-71
2024/01/27 00:39:27;;;;;;;;;;;23.10;99.90;;;;;;5116920;27;20382;-67
2024/01/27 00:41:55;;;;;;;;;;;23.10;99.90;;;;;;5133452;27;19939;-70
2024/01/27 00:44:22;;;;;;;;;;;23.00;99.90;;;;;;5128902;27;19912;-70
2024/01/27 00:46:48;;;;;;;;;;;23.10;99.90;;;;;;5113109;28;19908;-65
2024/01/27 00:49:15;;;;;;;;;;;23.20;99.90;;;;;;5113024;28;20379;-66
2024/01/27 00:51:42;;;;;;;;;;;23.20;99.90;;;;;;5112826;28;19915;-69
2024/01/27 00:54:08;;;;;;;;;;;23.30;99.90;;;;;;5112209;28;20003;-73
2024/01/27 00:56:35;;;;;;;;;;;23.30;99.90;;;;;;5112181;28;19919;-72
2024/01/27 00:59:05;;;;;;;;;;;23.40;99.90;;;;;;5112098;28;20291;-65
2024/01/27 01:01:32;;;;;;;;;;;23.50;99.90;;;;;;5112676;28;19912;-65
2024/01/27 01:03:59;;;;;;;;;;;23.50;99.90;;;;;;5112660;28;19908;-69
2024/01/27 01:06:25;;;;;;;;;;;23.40;99.90;;;;;;5112355;28;19914;-69
2024/01/27 01:08:52;;;;;;;;;;;23.50;99.90;;;;;;5121507;27;19915;-67
2024/01/27 01:11:18;;;;;;;;;;;23.40;99.90;;;;;;5114310;27;19916;-71
2024/01/27 01:13:45;;;;;;;;;;;23.40;99.90;;;;;;5112732;28;19912;-68
2024/01/27 01:16:12;;;;;;;;;;;23.50;99.90;;;;;;5130184;28;19907;-71
2024/01/27 01:18:38;;;;;;;;;;;23.50;99.90;;;;;;5133606;28;19919;-71
2024/01/27 01:21:05;;;;;;;;;;;23.60;99.90;;;;;;5133250;28;19907;-69
2024/01/27 01:23:32;;;;;;;;;;;23.70;99.90;;;;;;5125257;28;20006;-72
2024/01/27 01:25:59;;;;;;;;;;;23.70;99.90;;;;;;5105330;28;19908;-72
2024/01/27 01:28:25;;;;;;;;;;;23.70;99.90;;;;;;5091775;28;20356;-71
2024/01/27 01:30:52;;;;;;;;;;;23.80;99.90;;;;;;5105809;28;19915;-67
2024/01/27 01:33:18;;;;;;;;;;;23.80;99.90;;;;;;5117085;28;20371;-69
2024/01/27 01:35:45;;;;;;;;;;;23.70;99.90;;;;;;5128157;28;19908;-70
2024/01/27 01:38:12;;;;;;;;;;;23.70;99.90;;;;;;5132119;28;19919;-69
2024/01/27 01:40:39;;;;;;;;;;;23.80;99.90;;;;;;5133428;28;19908;-67
2024/01/27 01:43:14;;;;;;;;;;;23.80;99.90;;;;;;5114830;28;19915;-70
2024/01/27 01:45:41;;;;;;;;;;;23.80;99.90;;;;;;5112643;28;19967;-68
2024/01/27 01:48:08;;;;;;;;;;;23.80;99.90;;;;;;5112909;28;20393;-72
2024/01/27 01:50:35;;;;;;;;;;;23.90;99.90;;;;;;5114825;28;19907;-72
2024/01/27 01:53:02;;;;;;;;;;;23.70;99.90;;;;;;5121894;27;19908;-70
2024/01/27 01:55:29;;;;;;;;;;;23.50;99.90;;;;;;5100694;27;19916;-72
2024/01/27 01:57:56;;;;;;;;;;;23.30;99.90;;;;;;5096346;28;19966;-72
2024/01/27 02:00:23;;;;;;;;;;;23.10;99.90;;;;;;5096514;28;20268;-71
2024/01/27 02:02:49;;;;;;;;;;;23.00;99.90;;;;;;5096380;28;19912;-71
2024/01/27 02:05:16;;;;;;;;;;;23.10;99.90;;;;;;5096262;28;20374;-68
2024/01/27 02:07:43;;;;;;;;;;;23.30;99.90;;;;;;5124695;27;20363;-69
2024/01/27 02:10:13;;;;;;;;;;;23.60;99.90;;;;;;5137091;27;19912;-71
2024/01/27 02:12:40;;;;;;;;;;;23.70;99.90;;;;;;5118804;27;19976;-70
2024/01/27 02:15:10;;;;;;;;;;;23.90;99.90;;;;;;5136559;27;19914;-72
2024/01/27 02:17:37;;;;;;;;;;;24.10;99.90;;;;;;5136727;27;19922;-70
2024/01/27 02:20:04;;;;;;;;;;;24.30;99.90;;;;;;5133226;27;19907;-72
2024/01/27 02:22:30;;;;;;;;;;;24.50;99.90;;;;;;5097563;28;19918;-72
2024/01/27 02:24:57;;;;;;;;;;;24.60;99.90;;;;;;5116154;28;19918;-72
2024/01/27 02:27:24;;;;;;;;;;;24.60;99.90;;;;;;5116242;28;20326;-70
2024/01/27 02:29:50;;;;;;;;;;;24.80;99.90;;;;;;5113729;28;19961;-70
2024/01/27 02:32:17;;;;;;;;;;;25.00;99.90;;;;;;5114974;28;19911;-68
2024/01/27 02:34:44;;;;;;;;;;;25.20;99.90;;;;;;5116029;28;19907;-70
2024/01/27 02:37:10;;;;;;;;;;;25.00;99.90;;;;;;5124975;27;20418;-73
2024/01/27 02:39:37;;;;;;;;;;;25.30;99.90;;;;;;5128194;27;19912;-68
2024/01/27 02:42:04;;;;;;;;;;;25.50;99.90;;;;;;5115536;28;19908;-72
2024/01/27 02:44:31;;;;;;;;;;;25.50;99.90;;;;;;5116115;27;19908;-67
2024/01/27 02:46:57;;;;;;;;;;;25.60;99.90;;;;;;5135871;27;19911;-66
2024/01/27 02:49:24;;;;;;;;;;;25.60;99.90;;;;;;5129641;27;19918;-72
2024/01/27 02:51:50;;;;;;;;;;;25.90;99.90;;;;;;5115332;28;19922;-68
2024/01/27 02:54:17;;;;;;;;;;;26.10;99.90;;;;;;5115280;28;19908;-71
2024/01/27 02:56:44;;;;;;;;;;;26.30;99.90;;;;;;5115347;28;19972;-72
2024/01/27 02:59:11;;;;;;;;;;;26.30;99.90;;;;;;5096890;28;19907;-66
2024/01/27 03:01:38;;;;;;;;;;;26.40;99.90;;;;;;5114646;28;20003;-71
2024/01/27 03:04:05;;;;;;;;;;;26.40;99.90;;;;;;5115350;28;20425;-71
2024/01/27 03:06:32;;;;;;;;;;;26.40;99.90;;;;;;5115594;27;20068;-70
2024/01/27 03:08:58;;;;;;;;;;;26.30;99.90;;;;;;5117126;27;19916;-71
2024/01/27 03:11:25;;;;;;;;;;;26.30;99.90;;;;;;5114910;28;20287;-70
2024/01/27 03:13:51;;;;;;;;;;;26.10;99.90;;;;;;5115161;28;19915;-71
2024/01/27 03:16:19;;;;;;;;;;;25.90;99.90;;;;;;5115051;28;19915;-69
2024/01/27 03:18:46;;;;;;;;;;;25.70;99.90;;;;;;5114693;28;19992;-71
2024/01/27 03:21:12;;;;;;;;;;;25.50;99.90;;;;;;5114995;28;19991;-71
2024/01/27 03:23:39;;;;;;;;;;;25.30;99.90;;;;;;5114696;28;19911;-71
2024/01/27 03:26:06;;;;;;;;;;;25.20;99.90;;;;;;5114401;28;20307;-66
2024/01/27 03:28:32;;;;;;;;;;;25.10;99.90;;;;;;5114427;28;19994;-71
2024/01/27 03:30:59;;;;;;;;;;;24.90;99.90;;;;;;5113929;28;20378;-65
2024/01/27 03:33:29;;;;;;;;;;;24.90;99.90;;;;;;5114499;27;19969;-71
2024/01/27 03:35:55;;;;;;;;;;;24.80;99.90;;;;;;5133964;27;20001;-71
2024/01/27 03:38:22;;;;;;;;;;;24.60;99.90;;;;;;5134679;27;19962;-70
2024/01/27 03:40:49;;;;;;;;;;;24.60;99.90;;;;;;5116763;27;19994;-72
2024/01/27 03:43:15;;;;;;;;;;;24.50;99.90;;;;;;5114345;28;19946;-67
2024/01/27 03:45:42;;;;;;;;;;;24.50;99.90;;;;;;5114456;28;19908;-73
2024/01/27 03:48:09;;;;;;;;;;;24.50;99.90;;;;;;5114344;28;19908;-69
2024/01/27 03:50:35;;;;;;;;;;;24.40;99.90;;;;;;5114133;28;19951;-68
2024/01/27 03:53:02;;;;;;;;;;;24.10;99.90;;;;;;5114203;28;19912;-68
2024/01/27 03:55:28;;;;;;;;;;;24.00;99.90;;;;;;5113868;28;20011;-67
2024/01/27 03:57:55;;;;;;;;;;;23.90;99.90;;;;;;5114094;28;20431;-65
2024/01/27 04:00:22;;;;;;;;;;;23.90;99.90;;;;;;5116703;27;20291;-66
2024/01/27 04:02:49;;;;;;;;;;;24.00;99.90;;;;;;5114138;28;19908;-65
2024/01/27 04:05:15;;;;;;;;;;;24.00;99.90;;;;;;5113854;28;20253;-66
2024/01/27 04:07:42;;;;;;;;;;;24.10;99.90;;;;;;5122278;27;19911;-66
2024/01/27 04:10:09;;;;;;;;;;;24.10;99.90;;;;;;5121867;27;20025;-65
2024/01/27 04:12:35;;;;;;;;;;;24.00;99.90;;;;;;5113416;28;19908;-69
2024/01/27 04:15:02;;;;;;;;;;;23.90;99.90;;;;;;5112685;28;19915;-66
2024/01/27 04:17:29;;;;;;;;;;;23.80;99.90;;;;;;5113656;28;19916;-66
2024/01/27 04:19:55;;;;;;;;;;;23.80;99.90;;;;;;5113239;28;20393;-69
2024/01/27 04:22:22;;;;;;;;;;;23.70;99.90;;;;;;5113905;28;19914;-66
2024/01/27 04:24:48;;;;;;;;;;;23.80;99.90;;;;;;5124638;27;19915;-70
2024/01/27 04:27:15;;;;;;;;;;;24.10;99.90;;;;;;5134159;27;19908;-67
2024/01/27 04:29:42;;;;;;;;;;;24.50;99.90;;;;;;5125557;27;19930;-71
2024/01/27 04:32:08;;;;;;;;;;;24.70;99.90;;;;;;5113566;28;20002;-67
2024/01/27 04:34:35;;;;;;;;;;;25.00;99.90;;;;;;5113449;28;19922;-67
2024/01/27 04:37:02;;;;;;;;;;;25.30;99.90;;;;;;5113351;28;19919;-66
2024/01/27 04:39:29;;;;;;;;;;;25.60;99.90;;;;;;5113387;28;19957;-67
2024/01/27 04:41:55;;;;;;;;;;;26.00;99.90;;;;;;5113255;28;20359;-68
2024/01/27 04:44:22;;;;;;;;;;;26.30;99.90;;;;;;5113499;28;19960;-65
2024/01/27 04:46:48;;;;;;;;;;;26.30;99.90;;;;;;5113449;28;19961;-68
2024/01/27 04:49:15;;;;;;;;;;;26.30;99.90;;;;;;5116030;27;19931;-70
2024/01/27 04:51:42;;;;;;;;;;;26.10;99.90;;;;;;5113276;28;20371;-67
2024/01/27 04:54:09;;;;;;;;;;;26.10;99.90;;;;;;5112612;28;19931;-66
2024/01/27 04:56:36;;;;;;;;;;;26.10;99.90;;;;;;5112645;28;19920;-68
2024/01/27 04:59:03;;;;;;;;;;;26.30;99.90;;;;;;5112813;28;19916;-66
2024/01/27 05:01:29;;;;;;;;;;;26.20;99.90;;;;;;5112917;28;19922;-66
2024/01/27 05:03:56;;;;;;;;;;;26.00;99.90;;;;;;5113010;28;20008;-68
2024/01/27 05:06:23;;;;;;;;;;;25.90;99.90;;;;;;5112566;28;19909;-65
2024/01/27 05:08:49;;;;;;;;;;;25.90;99.90;;;;;;5112746;28;19959;-68
2024/01/27 05:11:17;;;;;;;;;;;26.00;99.90;;;;;;5112825;28;19923;-68
2024/01/27 05:13:44;;;;;;;;;;;25.90;99.90;;;;;;5114870;28;19920;-68
2024/01/27 05:16:11;;;;;;;;;;;26.10;99.90;;;;;;5133078;28;19907;-65
2024/01/27 05:18:37;;;;;;;;;;;26.30;99.90;;;;;;5133323;28;19915;-65
2024/01/27 05:21:04;;;;;;;;;;;26.40;99.90;;;;;;5094935;28;19946;-67
2024/01/27 05:23:31;;;;;;;;;;;26.50;99.90;;;;;;5127080;28;19933;-67
2024/01/27 05:25:57;;;;;;;;;;;26.50;99.90;;;;;;5116452;28;19915;-68
2024/01/27 05:28:24;;;;;;;;;;;26.40;99.90;;;;;;5117285;28;19907;-66
2024/01/27 05:30:50;;;;;;;;;;;26.30;99.90;;;;;;5116485;28;19908;-66
2024/01/27 05:33:17;;;;;;;;;;;26.30;99.90;;;;;;5116685;28;19919;-67
2024/01/27 05:35:44;;;;;;;;;;;26.20;99.90;;;;;;5116711;28;19908;-66
2024/01/27 05:38:10;;;;;;;;;;;26.10;99.90;;;;;;5116278;28;19939;-67
2024/01/27 05:40:37;;;;;;;;;;;26.10;99.90;;;;;;5119368;27;19916;-66
2024/01/27 05:43:03;;;;;;;;;;;25.90;99.90;;;;;;5116887;28;19908;-69
2024/01/27 05:45:31;;;;;;;;;;;25.80;99.90;;;;;;5116661;28;19931;-67
2024/01/27 05:47:57;;;;;;;;;;;25.60;99.90;;;;;;5116623;28;19998;-68
2024/01/27 05:50:24;;;;;;;;;;;25.50;99.90;;;;;;5116722;28;19908;-67
2024/01/27 05:52:51;;;;;;;;;;;25.40;99.90;;;;;;5116830;28;19908;-66
2024/01/27 05:55:17;;;;;;;;;;;25.30;99.90;;;;;;5116259;28;19955;-67
2024/01/27 05:57:44;;;;;;;;;;;25.20;99.90;;;;;;5116072;28;20257;-66
2024/01/27 06:00:11;;;;;;;;;;;25.10;99.90;;;;;;5116342;28;19907;-66
2024/01/27 06:02:37;;;;;;;;;;;25.10;99.90;;;;;;5116487;28;19929;-68
2024/01/27 06:05:04;;;;;;;;;;;25.00;99.90;;;;;;5130589;27;20311;-69
2024/01/27 06:07:31;;;;;;;;;;;25.10;99.90;;;;;;5136697;27;19918;-67
2024/01/27 06:09:57;;;;;;;;;;;25.10;99.90;;;;;;5126128;27;19908;-66
2024/01/27 06:12:25;;;;;;;;;;;25.30;99.90;;;;;;5115745;28;19955;-67
2024/01/27 06:14:51;;;;;;;;;;;25.50;99.90;;;;;;5115581;28;20407;-67
2024/01/27 06:17:18;;;;;;;;;;;25.50;99.90;;;;;;5115605;28;19912;-67
2024/01/27 06:19:45;;;;;;;;;;;25.50;99.90;;;;;;5115491;28;19966;-66
2024/01/27 06:22:12;;;;;;;;;;;25.50;99.90;;;;;;5115720;28;19908;-68
2024/01/27 06:24:43;;;;;;;;;;;25.50;99.90;;;;;;5114698;28;19912;-66
2024/01/27 06:27:11;;;;;;;;;;;25.30;99.90;;;;;;5124146;27;19919;-73
2024/01/27 06:29:38;;;;;;;;;;;25.20;99.90;;;;;;5095206;28;19904;-70
2024/01/27 06:32:05;;;;;;;;;;;25.10;99.90;;;;;;5094730;28;20368;-68
2024/01/27 06:34:32;;;;;;;;;;;25.00;99.90;;;;;;5093611;28;19908;-69
2024/01/27 06:36:59;;;;;;;;;;;25.00;99.90;;;;;;5094658;28;20000;-70
2024/01/27 06:39:26;;;;;;;;;;;25.00;99.90;;;;;;5097330;27;19916;-69
2024/01/27 06:41:52;;;;;;;;;;;25.10;99.90;;;;;;5136017;27;19964;-70
2024/01/27 06:44:19;;;;;;;;;;;25.10;99.90;;;;;;5136609;27;19953;-70
2024/01/27 06:46:49;;;;;;;;;;;24.90;99.90;;;;;;5136290;27;19908;-70
2024/01/27 06:49:19;;;;;;;;;;;24.90;99.90;;;;;;5118679;27;19918;-71
2024/01/27 06:51:46;;;;;;;;;;;24.80;99.90;;;;;;5110665;27;19998;-70
2024/01/27 06:54:13;;;;;;;;;;;24.90;99.90;;;;;;5113517;28;19939;-68
2024/01/27 06:56:39;;;;;;;;;;;24.90;99.90;;;;;;5109919;28;19967;-69
2024/01/27 06:59:06;;;;;;;;;;;24.80;99.90;;;;;;5093703;28;20343;-70
2024/01/27 07:01:33;;;;;;;;;;;24.70;99.90;;;;;;5106077;28;20421;-70
2024/01/27 07:03:59;;;;;;;;;;;24.80;99.90;;;;;;5096042;28;19954;-70
2024/01/27 07:06:26;;;;;;;;;;;24.80;99.90;;;;;;5114746;28;19912;-68
2024/01/27 07:08:52;;;;;;;;;;;24.80;99.90;;;;;;5111275;28;20696;-69
2024/01/27 07:11:19;;;;;;;;;;;24.80;99.90;;;;;;5114390;28;19907;-68
2024/01/27 07:13:46;;;;;;;;;;;24.80;99.90;;;;;;5114388;28;19919;-68
2024/01/27 07:16:13;;;;;;;;;;;24.80;99.90;;;;;;5114672;27;20359;-68
2024/01/27 07:18:39;;;;;;;;;;;24.80;99.90;;;;;;5112974;28;20026;-65
2024/01/27 07:21:06;;;;;;;;;;;24.80;99.90;;;;;;5114121;28;19907;-70
2024/01/27 07:23:35;;;;;;;;;;;24.80;99.90;;;;;;5114363;28;19964;-69
2024/01/27 07:26:03;;;;;;;;;;;24.80;99.90;;;;;;5098104;28;20001;-68
2024/01/27 07:28:29;;;;;;;;;;;24.70;99.90;;;;;;5109805;27;19918;-70
2024/01/27 07:30:56;;;;;;;;;;;24.70;99.90;;;;;;5113257;28;19908;-67
2024/01/27 07:33:23;;;;;;;;;;;24.70;99.90;;;;;;5113647;28;20007;-68
2024/01/27 07:35:49;;;;;;;;;;;24.70;99.90;;;;;;5113981;28;19915;-68
2024/01/27 07:38:16;;;;;;;;;;;24.70;99.90;;;;;;5114156;28;20343;-70
2024/01/27 07:40:43;;;;;;;;;;;24.80;99.90;;;;;;5112344;28;19973;-67
2024/01/27 07:43:09;;;;;;;;;;;24.80;99.90;;;;;;5116099;27;20296;-68
2024/01/27 07:45:36;;;;;;;;;;;24.80;99.90;;;;;;5113530;27;19912;-66
2024/01/27 07:48:03;;;;;;;;;;;24.70;99.90;;;;;;5113548;28;19968;-70
2024/01/27 07:50:29;;;;;;;;;;;24.80;99.90;;;;;;5112952;28;19912;-65
2024/01/27 07:52:56;;;;;;;;;;;24.80;99.90;;;;;;5111169;28;19912;-67
2024/01/27 07:55:23;;;;;;;;;;;24.90;99.90;;;;;;5113155;28;19923;-66
2024/01/27 07:57:50;;;;;;;;;;;25.00;99.90;;;;;;5113201;28;19972;-69
2024/01/27 08:00:16;;;;;;;;;;;25.00;99.90;;;;;;5113111;27;19933;-66
2024/01/27 08:02:43;;;;;;;;;;;25.10;99.90;;;;;;5113045;28;19915;-67
2024/01/27 08:05:10;;;;;;;;;;;25.10;99.90;;;;;;5113408;28;19912;-66
2024/01/27 08:07:36;;;;;;;;;;;25.10;99.90;;;;;;5129050;27;20372;-66
2024/01/27 08:10:04;;;;;;;;;;;24.90;99.90;;;;;;5131565;27;19908;-70
2024/01/27 08:12:31;;;;;;;;;;;24.90;99.90;;;;;;5113110;28;20011;-68
2024/01/27 08:14:57;;;;;;;;;;;24.90;99.90;;;;;;5123706;27;19907;-66
2024/01/27 08:17:25;;;;;;;;;;;24.90;99.90;;;;;;5112971;27;19919;-68
2024/01/27 08:19:51;;;;;;;;;;;24.80;99.90;;;;;;5112749;28;19915;-67
2024/01/27 08:22:18;;;;;;;;;;;24.80;99.90;;;;;;5112208;28;20272;-67
2024/01/27 08:24:45;;;;;;;;;;;24.80;99.90;;;;;;5109563;28;19994;-67
2024/01/27 08:27:11;;;;;;;;;;;24.80;99.90;;;;;;5110430;28;20291;-66
2024/01/27 08:29:38;;;;;;;;;;;24.80;99.90;;;;;;5113057;28;19945;-68
2024/01/27 08:32:05;;;;;;;;;;;24.60;99.90;;;;;;5112611;28;19911;-68
2024/01/27 08:34:31;;;;;;;;;;;24.60;99.90;;;;;;5108239;27;20289;-66
2024/01/27 08:37:00;;;;;;;;;;;24.40;99.90;;;;;;5107364;27;19914;-68
2024/01/27 08:39:27;;;;;;;;;;;24.40;99.90;;;;;;5112482;28;20601;-65
2024/01/27 08:41:53;;;;;;;;;;;24.40;99.90;;;;;;5112789;28;19914;-69
2024/01/27 08:44:20;;;;;;;;;;;24.30;99.90;;;;;;5112974;28;19912;-69
2024/01/27 08:46:47;;;;;;;;;;;24.30;99.90;;;;;;5112541;28;19918;-68
2024/01/27 08:49:13;;;;;;;;;;;24.30;99.90;;;;;;5112859;28;20306;-69
2024/01/27 08:51:40;;;;;;;;;;;24.30;99.90;;;;;;5112574;27;19980;-65
2024/01/27 08:54:06;;;;;;;;;;;24.30;99.90;;;;;;5112412;28;19912;-66
2024/01/27 08:56:33;;;;;;;;;;;24.30;99.90;;;;;;5112580;27;19965;-71
2024/01/27 08:59:00;;;;;;;;;;;24.30;99.90;;;;;;5111992;28;20348;-66
2024/01/27 09:01:27;;;;;;;;;;;24.20;99.90;;;;;;5111857;27;20002;-67
2024/01/27 09:03:54;;;;;;;;;;;24.20;99.90;;;;;;5123861;27;19911;-70
2024/01/27 09:06:20;;;;;;;;;;;24.20;99.90;;;;;;5106634;27;19958;-67
2024/01/27 09:08:47;;;;;;;;;;;24.10;99.90;;;;;;5112541;28;20383;-70
2024/01/27 09:11:13;;;;;;;;;;;24.00;99.90;;;;;;5111830;27;19911;-68
2024/01/27 09:13:40;;;;;;;;;;;24.00;99.90;;;;;;5112233;28;19952;-66
2024/01/27 09:16:07;;;;;;;;;;;24.00;99.90;;;;;;5112073;28;19968;-66
2024/01/27 09:18:34;;;;;;;;;;;24.00;99.90;;;;;;5112119;28;19926;-69
2024/01/27 09:21:01;;;;;;;;;;;23.90;99.90;;;;;;5112295;28;19908;-69
2024/01/27 09:23:27;;;;;;;;;;;23.90;99.90;;;;;;5116398;28;19911;-69
2024/01/27 09:25:54;;;;;;;;;;;23.90;99.90;;;;;;5128774;28;20284;-69
2024/01/27 09:28:21;;;;;;;;;;;23.90;99.90;;;;;;5111626;28;20279;-68
2024/01/27 09:30:47;;;;;;;;;;;23.90;99.90;;;;;;5112472;28;19914;-70
2024/01/27 09:33:14;;;;;;;;;;;23.90;99.90;;;;;;5112619;28;19912;-70
2024/01/27 09:35:40;;;;;;;;;;;23.80;99.90;;;;;;5111800;28;19908;-69
2024/01/27 09:38:12;;;;;;;;;;;23.80;99.90;;;;;;5111872;28;19919;-69
2024/01/27 09:40:39;;;;;;;;;;;23.80;99.90;;;;;;5111887;28;20263;-69
2024/01/27 09:43:06;;;;;;;;;;;23.80;99.90;;;;;;5121122;28;19915;-66
2024/01/27 09:45:33;;;;;;;;;;;23.80;99.90;;;;;;5114602;28;19916;-68
2024/01/27 09:48:01;;;;;;;;;;;23.70;99.90;;;;;;5129425;28;19912;-67
2024/01/27 09:50:28;;;;;;;;;;;23.70;99.90;;;;;;5127022;28;19957;-66
2024/01/27 09:52:54;;;;;;;;;;;23.70;99.90;;;;;;5112513;28;19908;-68
2024/01/27 09:55:21;;;;;;;;;;;23.80;99.90;;;;;;5112172;28;19926;-70
2024/01/27 09:57:48;;;;;;;;;;;23.80;99.90;;;;;;5109869;28;19920;-71
2024/01/27 10:00:18;;;;;;;;;;;23.80;99.90;;;;;;5093638;28;19916;-70
2024/01/27 10:02:46;;;;;;;;;;;23.90;99.90;;;;;;5105517;28;20908;-68
2024/01/27 10:05:13;;;;;;;;;;;23.90;99.90;;;;;;5097517;28;19911;-70
2024/01/27 10:07:40;;;;;;;;;;;23.80;99.90;;;;;;5108695;28;19964;-69
2024/01/27 10:10:07;;;;;;;;;;;23.70;99.90;;;;;;5112010;28;19911;-72
2024/01/27 10:12:35;;;;;;;;;;;23.80;99.90;;;;;;5115606;28;19911;-67
2024/01/27 10:15:02;;;;;;;;;;;23.70;99.90;;;;;;5116207;27;19968;-67
2024/01/27 10:17:34;;;;;;;;;;;23.80;99.90;;;;;;5115412;28;19984;-70
2024/01/27 10:20:03;;;;;;;;;;;23.80;99.90;;;;;;5115416;28;20295;-68
2024/01/27 10:22:37;;;;;;;;;;;23.70;99.90;;;;;;5114109;28;19912;-67
2024/01/27 10:25:04;;;;;;;;;;;23.70;99.90;;;;;;5101862;28;19908;-67
2024/01/27 10:27:30;;;;;;;;;;;23.70;99.90;;;;;;5114054;27;19912;-66
2024/01/27 10:29:57;;;;;;;;;;;23.70;99.90;;;;;;5115322;28;19908;-67
2024/01/27 10:32:24;;;;;;;;;;;23.70;99.90;;;;;;5115158;27;19965;-66
2024/01/27 10:35:01;;;;;;;;;;;23.80;99.90;;;;;;5115051;27;19915;-68
2024/01/27 10:37:27;;;;;;;;;;;23.80;99.90;;;;;;5114945;27;20010;-66
2024/01/27 10:40:10;;;;;;;;;;;23.70;99.90;;;;;;5114865;28;19908;-67
2024/01/27 10:42:37;;;;;;;;;;;23.80;99.90;;;;;;5111242;27;19912;-67
2024/01/27 10:45:05;;;;;;;;;;;23.80;99.90;;;;;;5114556;28;20007;-66
2024/01/27 10:47:32;;;;;;;;;;;23.80;99.90;;;;;;5126117;27;20421;-66
2024/01/27 10:49:59;;;;;;;;;;;23.80;99.90;;;;;;5120521;27;19931;-68
2024/01/27 10:52:31;;;;;;;;;;;23.70;99.90;;;;;;5115163;28;19962;-67
2024/01/27 10:55:00;;;;;;;;;;;23.80;99.90;;;;;;5114816;28;19919;-68
2024/01/27 10:57:27;;;;;;;;;;;23.80;99.90;;;;;;5113732;27;19920;-70
2024/01/27 10:59:54;;;;;;;;;;;23.80;99.90;;;;;;5114241;27;19916;-67
2024/01/27 11:02:21;;;;;;;;;;;23.70;99.90;;;;;;5114456;27;20379;-69
2024/01/27 11:04:49;;;;;;;;;;;23.70;99.90;;;;;;5114674;28;19915;-70
2024/01/27 11:07:17;;;;;;;;;;;23.80;99.90;;;;;;5114387;27;19912;-66
2024/01/27 11:09:43;;;;;;;;;;;23.80;99.90;;;;;;5114965;28;19953;-71
2024/01/27 11:12:10;;;;;;;;;;;23.70;99.90;;;;;;5114330;27;19912;-70
2024/01/27 11:14:37;;;;;;;;;;;23.70;99.90;;;;;;5114447;28;19914;-68
2024/01/27 11:17:03;;;;;;;;;;;23.70;99.90;;;;;;5114247;28;19994;-67
2024/01/27 11:19:30;;;;;;;;;;;23.70;99.90;;;;;;5113556;28;19915;-70
2024/01/27 11:22:03;;;;;;;;;;;23.70;99.90;;;;;;5113979;28;19919;-67
2024/01/27 11:24:29;;;;;;;;;;;23.70;99.90;;;;;;5114306;28;19911;-66
2024/01/27 11:27:06;;;;;;;;;;;23.70;99.90;;;;;;5114780;28;20004;-70
2024/01/27 11:29:34;;;;;;;;;;;23.70;99.90;;;;;;5114793;28;19918;-67
2024/01/27 11:32:02;;;;;;;;;;;23.70;99.90;;;;;;5114226;27;19911;-64
2024/01/27 11:34:29;;;;;;;;;;;23.80;99.90;;;;;;5108331;28;19912;-68
2024/01/27 11:36:56;;;;;;;;;;;23.80;99.90;;;;;;5118018;27;19914;-68
2024/01/27 11:39:24;;;;;;;;;;;23.80;99.90;;;;;;5114125;28;19908;-70
2024/01/27 11:41:51;;;;;;;;;;;23.70;99.90;;;;;;5113344;28;19950;-68
2024/01/27 11:44:18;;;;;;;;;;;23.80;99.90;;;;;;5114168;28;20408;-69
2024/01/27 11:46:47;;;;;;;;;;;23.80;99.90;;;;;;5114185;28;19912;-69
2024/01/27 11:49:15;;;;;;;;;;;23.80;99.90;;;;;;5121668;27;19933;-67
2024/01/27 11:51:42;;;;;;;;;;;23.80;99.90;;;;;;5109461;28;19914;-70
2024/01/27 11:54:09;;;;;;;;;;;23.80;99.90;;;;;;5095716;28;19908;-70
2024/01/27 11:56:36;;;;;;;;;;;23.80;99.90;;;;;;5114052;28;19926;-67
2024/01/27 11:59:03;;;;;;;;;;;23.80;99.90;;;;;;5113659;28;19919;-69
2024/01/27 12:01:29;;;;;;;;;;;23.80;99.90;;;;;;5099703;28;19912;-68
2024/01/27 12:03:56;;;;;;;;;;;23.70;99.90;;;;;;5113075;28;20249;-69
2024/01/27 12:06:23;;;;;;;;;;;23.70;99.90;;;;;;5108920;28;19912;-69
2024/01/27 12:08:53;;;;;;;;;;;23.70;99.90;;;;;;5103439;28;19912;-66
2024/01/27 12:11:19;;;;;;;;;;;23.70;99.90;;;;;;5105939;28;19919;-68
2024/01/27 12:13:46;;;;;;;;;;;23.70;99.90;;;;;;5113186;27;20412;-70
2024/01/27 12:16:13;;;;;;;;;;;23.70;99.90;;;;;;5094851;28;19978;-65
2024/01/27 12:18:39;;;;;;;;;;;23.60;99.90;;;;;;5113101;28;19915;-68
2024/01/27 12:21:06;;;;;;;;;;;23.50;99.90;;;;;;5094299;28;20283;-69
2024/01/27 12:23:33;;;;;;;;;;;23.40;99.90;;;;;;5095645;28;19919;-68
2024/01/27 12:25:59;;;;;;;;;;;23.40;99.90;;;;;;5113516;28;20306;-68
2024/01/27 12:28:27;;;;;;;;;;;23.30;99.90;;;;;;5113538;28;20352;-68
2024/01/27 12:30:54;;;;;;;;;;;23.20;99.90;;;;;;5113543;28;19914;-69
2024/01/27 12:33:22;;;;;;;;;;;23.20;99.90;;;;;;5095322;28;19965;-70
2024/01/27 12:35:50;;;;;;;;;;;23.10;99.90;;;;;;5112676;28;19950;-70
2024/01/27 12:38:18;;;;;;;;;;;23.10;99.90;;;;;;5121004;27;20046;-70
2024/01/27 12:40:45;;;;;;;;;;;23.00;99.90;;;;;;5112885;28;19916;-69
2024/01/27 12:43:11;;;;;;;;;;;23.00;99.90;;;;;;5104652;28;19956;-69
2024/01/27 12:45:38;;;;;;;;;;;22.90;99.90;;;;;;5093122;28;19947;-70
2024/01/27 12:48:05;;;;;;;;;;;22.90;99.90;;;;;;5092931;28;19916;-68
2024/01/27 12:50:33;;;;;;;;;;;22.90;99.90;;;;;;5092955;28;19947;-68
2024/01/27 12:53:00;;;;;;;;;;;22.80;99.90;;;;;;5092582;28;19969;-68
2024/01/27 12:55:26;;;;;;;;;;;22.80;99.90;;;;;;5092948;28;19924;-71
2024/01/27 12:57:53;;;;;;;;;;;22.70;99.90;;;;;;5093040;28;19916;-69
2024/01/27 13:00:20;;;;;;;;;;;22.70;99.90;;;;;;5114732;27;20006;-68
2024/01/27 13:02:46;;;;;;;;;;;22.70;99.90;;;;;;5112694;28;19924;-68
2024/01/27 13:05:13;;;;;;;;;;;22.60;99.90;;;;;;5118253;27;19918;-69
2024/01/27 13:07:39;;;;;;;;;;;22.60;99.90;;;;;;5130992;27;19907;-70
2024/01/27 13:10:07;;;;;;;;;;;22.60;99.90;;;;;;5113000;28;20378;-69
2024/01/27 13:12:34;;;;;;;;;;;22.50;99.90;;;;;;5112953;28;19908;-68
2024/01/27 13:15:01;;;;;;;;;;;22.40;99.90;;;;;;5095332;28;19916;-69
2024/01/27 13:17:28;;;;;;;;;;;22.40;99.90;;;;;;5092690;28;20360;-69
2024/01/27 13:19:54;;;;;;;;;;;22.40;99.90;;;;;;5109337;28;20020;-68
2024/01/27 13:22:24;;;;;;;;;;;22.40;99.90;;;;;;5113038;28;19908;-70
2024/01/27 13:24:51;;;;;;;;;;;22.40;99.90;;;;;;5113756;28;20021;-69
2024/01/27 13:27:17;;;;;;;;;;;22.40;99.90;;;;;;5092985;28;19965;-71
2024/01/27 13:29:45;;;;;;;;;;;22.30;99.90;;;;;;5092656;28;19955;-69
2024/01/27 13:32:11;;;;;;;;;;;22.30;99.90;;;;;;5092398;28;19993;-69
2024/01/27 13:34:38;;;;;;;;;;;22.20;99.90;;;;;;5092542;28;20276;-70
2024/01/27 13:37:05;;;;;;;;;;;22.20;99.90;;;;;;5092336;28;19908;-68
2024/01/27 13:39:31;;;;;;;;;;;22.20;99.90;;;;;;5092660;28;19908;-69
2024/01/27 13:41:58;;;;;;;;;;;22.10;99.90;;;;;;5092362;28;20352;-67
2024/01/27 13:44:25;;;;;;;;;;;22.00;99.90;;;;;;5093321;28;20412;-69
2024/01/27 13:46:51;;;;;;;;;;;22.00;99.90;;;;;;5113506;28;19908;-69
2024/01/27 13:49:19;;;;;;;;;;;22.00;99.90;;;;;;5117032;28;20308;-68
2024/01/27 13:51:46;;;;;;;;;;;22.00;99.90;;;;;;5117256;27;20283;-70
2024/01/27 13:54:14;;;;;;;;;;;22.00;99.90;;;;;;5136478;27;19911;-69
2024/01/27 13:56:40;;;;;;;;;;;22.00;99.90;;;;;;5137361;27;19955;-69
2024/01/27 13:59:08;;;;;;;;;;;21.90;99.90;;;;;;5137244;27;19923;-70
2024/01/27 14:01:35;;;;;;;;;;;22.00;99.90;;;;;;5137630;27;19914;-68
2024/01/27 14:04:01;;;;;;;;;;;21.90;99.90;;;;;;5137309;27;19911;-68
2024/01/27 14:06:28;;;;;;;;;;;21.90;99.90;;;;;;5137237;27;19908;-69
2024/01/27 14:08:54;;;;;;;;;;;21.80;99.90;;;;;;5137155;27;19908;-69
2024/01/27 14:11:22;;;;;;;;;;;21.80;99.90;;;;;;5137566;27;19914;-68
2024/01/27 14:13:48;;;;;;;;;;;21.70;99.90;;;;;;5137450;27;19974;-68